createdAt,value
2019-05-05T00:01:39.545Z,52.74
2019-05-05T00:04:24.248Z,52.67
2019-05-05T00:06:50.165Z,52.70
2019-05-05T00:09:16.066Z,52.70
2019-05-05T00:11:56.068Z,52.71
2019-05-05T00:14:24.582Z,52.85
2019-05-05T00:16:54.551Z,52.83
2019-05-05T00:19:30.640Z,52.74
2019-05-05T00:21:47.902Z,52.67
2019-05-05T00:24:15.175Z,52.61
2019-05-05T00:26:41.344Z,52.61
2019-05-05T00:29:07.299Z,52.65
2019-05-05T00:31:34.922Z,52.68
2019-05-05T00:34:00.943Z,52.68
2019-05-05T00:36:26.929Z,52.74
2019-05-05T00:38:54.992Z,52.67
2019-05-05T00:41:20.477Z,52.57
2019-05-05T00:43:46.360Z,52.62
2019-05-05T00:46:16.331Z,52.75
2019-05-05T00:48:44.479Z,52.83
2019-05-05T00:51:10.467Z,52.91
2019-05-05T00:53:36.372Z,52.89
2019-05-05T00:56:02.430Z,52.75
2019-05-05T00:58:29.891Z,52.78
2019-05-05T01:00:57.659Z,52.60
2019-05-05T01:03:24.864Z,52.79
2019-05-05T01:06:07.409Z,52.88
2019-05-05T01:08:35.295Z,52.96
2019-05-05T01:11:00.977Z,52.91
2019-05-05T01:13:26.828Z,52.92
2019-05-05T01:15:54.227Z,52.96
2019-05-05T01:18:20.099Z,52.95
2019-05-05T01:20:46.076Z,52.87
2019-05-05T01:23:12.131Z,52.94
2019-05-05T01:25:38.074Z,52.95
2019-05-05T01:28:04.995Z,53.01
2019-05-05T01:30:34.986Z,53.03
2019-05-05T01:33:19.302Z,52.98
2019-05-05T01:35:45.385Z,52.95
2019-05-05T01:38:31.194Z,52.91
2019-05-05T01:41:01.712Z,53.04
2019-05-05T01:43:27.694Z,53.05
2019-05-05T01:45:54.627Z,53.02
2019-05-05T01:48:20.893Z,53.01
2019-05-05T01:50:46.920Z,53.04
2019-05-05T01:53:12.795Z,53.03
2019-05-05T01:55:39.070Z,53.00
2019-05-05T01:58:05.088Z,53.31
2019-05-05T02:00:30.943Z,53.54
2019-05-05T02:02:56.938Z,53.46
2019-05-05T02:05:24.214Z,53.60
2019-05-05T02:07:50.218Z,53.78
2019-05-05T02:10:16.366Z,54.19
2019-05-05T02:12:44.494Z,54.03
2019-05-05T02:15:10.276Z,53.95
2019-05-05T02:17:36.372Z,54.04
2019-05-05T02:20:05.212Z,54.13
2019-05-05T02:22:30.842Z,54.08
2019-05-05T02:24:56.828Z,54.01
2019-05-05T02:27:25.004Z,53.92
2019-05-05T02:29:55.222Z,53.83
2019-05-05T02:32:36.113Z,53.73
2019-05-05T02:35:06.430Z,53.66
2019-05-05T02:37:32.174Z,53.65
2019-05-05T02:40:03.330Z,53.66
2019-05-05T02:42:26.261Z,53.68
2019-05-05T02:44:54.371Z,53.75
2019-05-05T02:47:36.658Z,53.71
2019-05-05T02:50:05.414Z,53.64
2019-05-05T02:52:34.527Z,53.62
2019-05-05T02:54:59.932Z,53.69
2019-05-05T02:57:25.908Z,53.70
2019-05-05T02:59:59.682Z,53.68
2019-05-05T03:02:27.776Z,53.59
2019-05-05T03:04:53.772Z,53.64
2019-05-05T03:07:21.524Z,53.64
2019-05-05T03:09:48.399Z,53.62
2019-05-05T03:12:15.646Z,53.65
2019-05-05T03:14:44.590Z,53.70
2019-05-05T03:17:11.396Z,53.74
2019-05-05T03:19:37.822Z,53.78
2019-05-05T03:22:03.802Z,53.82
2019-05-05T03:24:30.411Z,53.91
2019-05-05T03:26:56.393Z,53.89
2019-05-05T03:29:24.394Z,53.95
2019-05-05T03:31:50.601Z,54.07
2019-05-05T03:34:17.188Z,53.95
2019-05-05T03:36:44.187Z,54.07
2019-05-05T03:39:13.941Z,54.10
2019-05-05T03:41:43.701Z,53.99
2019-05-05T03:44:30.023Z,54.10
2019-05-05T03:46:56.183Z,54.21
2019-05-05T03:49:24.270Z,54.26
2019-05-05T03:51:50.212Z,54.20
2019-05-05T03:54:16.965Z,54.24
2019-05-05T03:56:44.158Z,54.35
2019-05-05T03:59:10.363Z,54.64
2019-05-05T04:01:38.238Z,54.38
2019-05-05T04:04:25.438Z,54.37
2019-05-05T04:06:56.365Z,54.53
2019-05-05T04:09:24.285Z,54.46
2019-05-05T04:11:50.414Z,54.49
2019-05-05T04:14:18.422Z,54.43
2019-05-05T04:17:03.537Z,54.49
2019-05-05T04:19:37.242Z,54.66
2019-05-05T04:22:04.260Z,54.43
2019-05-05T04:24:30.298Z,54.30
2019-05-05T04:26:56.264Z,54.33
2019-05-05T04:29:24.264Z,54.48
2019-05-05T04:31:50.059Z,54.37
2019-05-05T04:34:15.922Z,54.31
2019-05-05T04:36:41.891Z,54.21
2019-05-05T04:39:07.784Z,54.16
2019-05-05T04:41:34.031Z,54.23
2019-05-05T04:43:59.911Z,54.10
2019-05-05T04:46:25.928Z,54.01
2019-05-05T04:48:54.446Z,54.07
2019-05-05T04:51:24.869Z,53.77
2019-05-05T04:54:04.680Z,53.91
2019-05-05T04:56:30.744Z,53.70
2019-05-05T04:58:56.710Z,53.67
2019-05-05T05:01:24.148Z,53.82
2019-05-05T05:03:54.599Z,53.62
2019-05-05T05:06:23.693Z,53.56
2019-05-05T05:08:49.654Z,53.52
2019-05-05T05:11:15.612Z,53.49
2019-05-05T05:13:41.494Z,53.45
2019-05-05T05:16:07.475Z,53.12
2019-05-05T05:18:34.350Z,53.08
2019-05-05T05:21:00.397Z,53.27
2019-05-05T05:23:26.288Z,53.52
2019-05-05T05:25:54.247Z,53.33
2019-05-05T05:28:19.810Z,53.38
2019-05-05T05:30:45.797Z,53.38
2019-05-05T05:33:11.760Z,53.39
2019-05-05T05:35:37.614Z,53.27
2019-05-05T05:38:04.614Z,53.17
2019-05-05T05:40:41.287Z,53.15
2019-05-05T05:43:09.085Z,53.13
2019-05-05T05:45:48.751Z,53.07
2019-05-05T05:48:19.435Z,53.05
2019-05-05T05:50:50.149Z,52.95
2019-05-05T05:53:16.013Z,52.86
2019-05-05T05:55:41.917Z,52.70
2019-05-05T05:58:07.801Z,52.72
2019-05-05T06:00:34.347Z,52.76
2019-05-05T06:03:00.440Z,52.69
2019-05-05T06:05:26.329Z,52.68
2019-05-05T06:07:54.270Z,52.60
2019-05-05T06:10:24.302Z,52.58
2019-05-05T06:12:47.825Z,52.62
2019-05-05T06:15:14.197Z,52.61
2019-05-05T06:17:40.289Z,52.50
2019-05-05T06:20:06.372Z,52.45
2019-05-05T06:22:34.397Z,52.34
2019-05-05T06:25:00.031Z,52.12
2019-05-05T06:27:25.861Z,51.89
2019-05-05T06:29:51.743Z,51.68
2019-05-05T06:32:17.718Z,50.95
2019-05-05T06:34:44.313Z,51.16
2019-05-05T06:37:10.477Z,51.16
2019-05-05T06:39:36.384Z,50.59
2019-05-05T06:42:04.555Z,50.53
2019-05-05T06:44:33.848Z,49.63
2019-05-05T06:47:07.837Z,49.88
2019-05-05T06:49:34.555Z,49.63
2019-05-05T06:52:00.628Z,49.67
2019-05-05T06:54:26.624Z,49.24
2019-05-05T06:56:53.877Z,48.44
2019-05-05T06:59:21.206Z,49.23
2019-05-05T07:01:47.112Z,49.28
2019-05-05T07:04:13.969Z,48.54
2019-05-05T07:06:51.665Z,46.78
2019-05-05T07:09:07.868Z,46.57
2019-05-05T07:11:34.253Z,47.19
2019-05-05T07:14:00.230Z,47.60
2019-05-05T07:16:26.336Z,47.07
2019-05-05T07:18:53.941Z,47.11
2019-05-05T07:21:19.937Z,47.16
2019-05-05T07:23:45.819Z,47.73
2019-05-05T07:26:11.664Z,46.77
2019-05-05T07:28:37.552Z,44.93
2019-05-05T07:31:04.473Z,45.50
2019-05-05T07:33:30.461Z,45.37
2019-05-05T07:36:06.104Z,45.16
2019-05-05T07:38:33.709Z,45.07
2019-05-05T07:40:59.810Z,44.53
2019-05-05T07:43:25.677Z,43.59
2019-05-05T07:45:53.871Z,44.65
2019-05-05T07:48:19.367Z,44.03
2019-05-05T07:50:58.189Z,44.58
2019-05-05T07:53:17.582Z,44.17
2019-05-05T07:55:40.897Z,44.43
2019-05-05T07:58:06.872Z,43.98
2019-05-05T08:00:34.302Z,44.41
2019-05-05T08:03:00.271Z,43.78
2019-05-05T08:05:26.144Z,42.42
2019-05-05T08:07:53.933Z,43.17
2019-05-05T08:10:19.893Z,43.95
2019-05-05T08:12:45.762Z,44.01
2019-05-05T08:15:12.115Z,44.47
2019-05-05T08:17:58.068Z,44.49
2019-05-05T08:20:28.625Z,44.33
2019-05-05T08:22:54.572Z,44.07
2019-05-05T08:25:39.244Z,43.86
2019-05-05T08:27:57.764Z,44.39
2019-05-05T08:30:28.432Z,44.49
2019-05-05T08:32:54.676Z,43.15
2019-05-05T08:35:20.646Z,43.72
2019-05-05T08:37:46.483Z,43.67
2019-05-05T08:40:14.664Z,43.55
2019-05-05T08:42:40.301Z,43.54
2019-05-05T08:45:06.373Z,43.55
2019-05-05T08:47:34.443Z,43.85
2019-05-05T08:50:00.117Z,44.19
2019-05-05T08:52:26.144Z,39.87
2019-05-05T08:54:53.978Z,42.23
2019-05-05T08:57:19.876Z,42.59
2019-05-05T08:59:45.723Z,42.71
2019-05-05T09:02:11.592Z,42.76
2019-05-05T09:04:37.566Z,40.71
2019-05-05T09:07:05.006Z,39.77
2019-05-05T09:09:31.002Z,40.01
2019-05-05T09:11:57.096Z,40.18
2019-05-05T09:14:24.029Z,40.52
2019-05-05T09:16:50.264Z,40.68
2019-05-05T09:19:18.215Z,41.55
2019-05-05T09:21:44.763Z,41.19
2019-05-05T09:24:29.151Z,41.84
2019-05-05T09:27:09.035Z,40.62
2019-05-05T09:29:39.802Z,41.83
2019-05-05T09:32:05.748Z,40.23
2019-05-05T09:34:31.601Z,40.16
2019-05-05T09:36:57.778Z,39.78
2019-05-05T09:39:23.997Z,40.49
2019-05-05T09:41:49.899Z,40.62
2019-05-05T09:44:15.963Z,40.80
2019-05-05T09:46:41.876Z,39.78
2019-05-05T09:49:07.950Z,40.43
2019-05-05T09:51:34.722Z,39.69
2019-05-05T09:54:11.936Z,39.37
2019-05-05T09:56:28.905Z,39.26
2019-05-05T09:58:55.070Z,40.12
2019-05-05T10:01:20.925Z,40.76
2019-05-05T10:03:46.800Z,40.87
2019-05-05T10:06:14.255Z,40.73
2019-05-05T10:08:40.317Z,39.80
2019-05-05T10:11:06.296Z,40.19
2019-05-05T10:13:33.639Z,39.97
2019-05-05T10:15:59.655Z,40.30
2019-05-05T10:18:25.596Z,40.10
2019-05-05T10:20:51.462Z,40.05
2019-05-05T10:23:17.320Z,40.03
2019-05-05T10:25:45.086Z,39.75
2019-05-05T10:28:11.051Z,39.22
2019-05-05T10:30:37.149Z,39.64
2019-05-05T10:33:03.758Z,39.49
2019-05-05T10:35:34.260Z,39.39
2019-05-05T10:37:59.695Z,39.97
2019-05-05T10:40:30.337Z,39.83
2019-05-05T10:42:56.266Z,40.26
2019-05-05T10:45:24.231Z,40.35
2019-05-05T10:47:50.342Z,40.33
2019-05-05T10:50:16.311Z,39.41
2019-05-05T10:52:44.176Z,40.15
2019-05-05T10:55:10.372Z,40.06
2019-05-05T10:57:36.267Z,40.08
2019-05-05T11:00:12.318Z,39.44
2019-05-05T11:02:31.306Z,39.40
2019-05-05T11:04:57.325Z,39.37
2019-05-05T11:07:23.608Z,39.66
2019-05-05T11:09:49.638Z,39.31
2019-05-05T11:12:15.769Z,38.44
2019-05-05T11:14:41.612Z,38.61
2019-05-05T11:17:07.563Z,38.83
2019-05-05T11:19:33.817Z,37.95
2019-05-05T11:21:59.826Z,38.21
2019-05-05T11:24:25.706Z,38.62
2019-05-05T11:26:53.820Z,38.67
2019-05-05T11:29:19.272Z,39.18
2019-05-05T11:31:47.038Z,38.51
2019-05-05T11:34:17.598Z,38.41
2019-05-05T11:36:57.343Z,38.05
2019-05-05T11:39:23.608Z,37.75
2019-05-05T11:41:49.605Z,37.76
2019-05-05T11:44:15.500Z,38.26
2019-05-05T11:46:41.457Z,38.69
2019-05-05T11:49:07.313Z,38.01
2019-05-05T11:51:34.167Z,38.11
2019-05-05T11:54:00.305Z,38.27
2019-05-05T11:56:26.299Z,38.61
2019-05-05T11:58:52.191Z,38.89
2019-05-05T12:01:18.233Z,39.30
2019-05-05T12:03:44.543Z,39.25
2019-05-05T12:06:10.413Z,39.29
2019-05-05T12:08:36.509Z,38.48
2019-05-05T12:11:04.638Z,38.26
2019-05-05T12:13:30.589Z,38.42
2019-05-05T12:16:00.469Z,38.20
2019-05-05T12:18:26.491Z,38.45
2019-05-05T12:20:54.264Z,38.06
2019-05-05T12:23:20.293Z,37.98
2019-05-05T12:25:48.195Z,38.44
2019-05-05T12:28:18.817Z,38.49
2019-05-05T12:30:44.848Z,38.60
2019-05-05T12:33:10.838Z,38.66
2019-05-05T12:35:36.728Z,38.89
2019-05-05T12:38:02.844Z,39.19
2019-05-05T12:40:28.708Z,39.49
2019-05-05T12:42:54.585Z,39.71
2019-05-05T12:45:24.062Z,39.75
2019-05-05T12:48:08.385Z,39.09
2019-05-05T12:50:34.499Z,38.94
2019-05-05T12:53:00.377Z,38.50
2019-05-05T12:55:40.574Z,38.62
2019-05-05T12:57:54.172Z,38.86
2019-05-05T13:00:20.677Z,39.10
2019-05-05T13:02:46.532Z,39.35
2019-05-05T13:05:14.497Z,39.80
2019-05-05T13:07:40.469Z,39.91
2019-05-05T13:10:06.825Z,40.18
2019-05-05T13:12:34.423Z,40.24
2019-05-05T13:15:00.505Z,40.28
2019-05-05T13:17:26.464Z,40.39
2019-05-05T13:19:57.300Z,40.13
2019-05-05T13:22:25.542Z,39.88
2019-05-05T13:24:56.212Z,39.55
2019-05-05T13:27:29.970Z,39.69
2019-05-05T13:29:55.811Z,39.80
2019-05-05T13:32:21.664Z,39.74
2019-05-05T13:34:47.832Z,39.39
2019-05-05T13:37:14.186Z,38.82
2019-05-05T13:39:40.140Z,38.67
2019-05-05T13:42:06.101Z,38.45
2019-05-05T13:44:36.737Z,38.89
2019-05-05T13:47:01.642Z,39.16
2019-05-05T13:49:29.433Z,39.33
2019-05-05T13:51:57.208Z,39.28
2019-05-05T13:54:24.263Z,39.64
2019-05-05T13:56:50.516Z,39.65
2019-05-05T13:59:16.644Z,39.27
2019-05-05T14:01:44.600Z,39.37
2019-05-05T14:04:10.257Z,39.19
2019-05-05T14:06:36.205Z,38.93
2019-05-05T14:09:04.340Z,39.08
2019-05-05T14:11:30.437Z,39.05
2019-05-05T14:13:56.297Z,39.21
2019-05-05T14:16:22.152Z,39.11
2019-05-05T14:18:48.328Z,39.05
2019-05-05T14:21:14.200Z,38.57
2019-05-05T14:23:54.491Z,38.81
2019-05-05T14:26:25.607Z,38.47
2019-05-05T14:28:48.212Z,38.32
2019-05-05T14:31:16.103Z,38.82
2019-05-05T14:33:54.225Z,39.11
2019-05-05T14:36:24.357Z,39.31
2019-05-05T14:38:53.787Z,39.42
2019-05-05T14:41:19.474Z,39.63
2019-05-05T14:43:45.502Z,39.83
2019-05-05T14:46:11.560Z,39.74
2019-05-05T14:48:37.432Z,39.69
2019-05-05T14:51:04.028Z,40.16
2019-05-05T14:53:30.029Z,40.55
2019-05-05T14:55:58.146Z,40.53
2019-05-05T14:58:25.197Z,40.33
2019-05-05T15:00:51.045Z,40.55
2019-05-05T15:03:17.062Z,40.36
2019-05-05T15:05:44.852Z,40.36
2019-05-05T15:08:15.228Z,40.30
2019-05-05T15:10:59.672Z,40.04
2019-05-05T15:13:25.533Z,39.93
2019-05-05T15:15:51.397Z,39.78
2019-05-05T15:18:17.540Z,39.70
2019-05-05T15:20:44.041Z,39.56
2019-05-05T15:23:10.064Z,39.85
2019-05-05T15:25:36.195Z,40.14
2019-05-05T15:28:02.266Z,39.98
2019-05-05T15:30:28.223Z,40.05
2019-05-05T15:32:54.267Z,39.92
2019-05-05T15:35:20.433Z,40.01
2019-05-05T15:37:46.363Z,40.25
2019-05-05T15:40:14.285Z,40.21
2019-05-05T15:42:40.247Z,40.55
2019-05-05T15:45:06.408Z,40.88
2019-05-05T15:47:34.316Z,41.01
2019-05-05T15:50:00.218Z,40.97
2019-05-05T15:52:26.226Z,41.04
2019-05-05T15:54:53.961Z,41.15
2019-05-05T15:57:20.008Z,41.06
2019-05-05T15:59:46.052Z,41.20
2019-05-05T16:02:13.362Z,41.65
2019-05-05T16:04:39.389Z,41.66
2019-05-05T16:07:05.367Z,41.68
2019-05-05T16:09:31.428Z,41.92
2019-05-05T16:11:57.375Z,41.93
2019-05-05T16:14:23.874Z,42.05
2019-05-05T16:17:00.598Z,42.00
2019-05-05T16:19:34.226Z,41.81
2019-05-05T16:22:10.485Z,41.81
2019-05-05T16:24:38.222Z,41.85
2019-05-05T16:27:17.789Z,41.95
2019-05-05T16:29:33.593Z,42.25
2019-05-05T16:31:59.520Z,42.56
2019-05-05T16:34:25.493Z,42.61
2019-05-05T16:36:51.649Z,42.30
2019-05-05T16:39:17.522Z,42.32
2019-05-05T16:41:43.510Z,42.24
2019-05-05T16:44:09.282Z,42.42
2019-05-05T16:46:35.251Z,42.71
2019-05-05T16:49:01.235Z,42.81
2019-05-05T16:51:29.010Z,43.20
2019-05-05T16:53:56.626Z,43.21
2019-05-05T16:56:26.842Z,43.16
2019-05-05T16:58:52.966Z,43.06
2019-05-05T17:01:18.983Z,43.29
2019-05-05T17:03:45.774Z,43.18
2019-05-05T17:06:14.044Z,43.19
2019-05-05T17:08:40.027Z,43.69
2019-05-05T17:11:05.975Z,43.60
2019-05-05T17:13:50.049Z,43.69
2019-05-05T17:16:26.824Z,44.15
2019-05-05T17:18:54.743Z,44.16
2019-05-05T17:21:25.196Z,44.14
2019-05-05T17:23:51.178Z,44.34
2019-05-05T17:26:17.305Z,44.42
2019-05-05T17:28:44.363Z,44.70
2019-05-05T17:31:10.400Z,44.68
2019-05-05T17:33:38.406Z,44.82
2019-05-05T17:36:04.634Z,44.83
2019-05-05T17:38:30.617Z,45.33
2019-05-05T17:40:58.517Z,44.92
2019-05-05T17:43:35.103Z,45.75
2019-05-05T17:46:03.856Z,45.76
2019-05-05T17:48:49.539Z,46.13
2019-05-05T17:51:31.283Z,46.03
2019-05-05T17:53:58.742Z,46.40
2019-05-05T17:56:24.700Z,47.14
2019-05-05T17:58:50.688Z,46.36
2019-05-05T18:01:16.754Z,46.16
2019-05-05T18:03:43.643Z,46.49
2019-05-05T18:06:11.632Z,46.49
2019-05-05T18:08:42.047Z,46.64
2019-05-05T18:11:13.934Z,47.13
2019-05-05T18:13:45.116Z,47.52
2019-05-05T18:16:11.077Z,47.79
2019-05-05T18:18:37.282Z,47.95
2019-05-05T18:21:03.175Z,48.09
2019-05-05T18:23:31.258Z,48.32
2019-05-05T18:25:57.341Z,48.84
2019-05-05T18:28:24.705Z,48.09
2019-05-05T18:30:50.595Z,48.21
2019-05-05T18:33:17.321Z,47.94
2019-05-05T18:35:44.427Z,49.06
2019-05-05T18:38:10.468Z,48.92
2019-05-05T18:40:36.534Z,48.79
2019-05-05T18:43:04.394Z,49.18
2019-05-05T18:45:30.255Z,49.88
2019-05-05T18:47:56.231Z,49.20
2019-05-05T18:50:24.253Z,49.98
2019-05-05T18:52:49.899Z,49.69
2019-05-05T18:55:15.853Z,49.32
2019-05-05T18:57:43.379Z,49.94
2019-05-05T19:00:13.817Z,49.46
2019-05-05T19:02:41.576Z,49.73
2019-05-05T19:05:18.620Z,49.49
2019-05-05T19:07:55.239Z,49.49
2019-05-05T19:10:15.325Z,50.05
2019-05-05T19:12:41.399Z,50.30
2019-05-05T19:15:07.533Z,49.58
2019-05-05T19:17:34.544Z,49.94
2019-05-05T19:20:04.295Z,49.94
2019-05-05T19:22:30.287Z,50.11
2019-05-05T19:24:59.058Z,49.89
2019-05-05T19:27:25.235Z,49.88
2019-05-05T19:29:51.291Z,50.04
2019-05-05T19:32:17.457Z,50.12
2019-05-05T19:34:43.914Z,50.44
2019-05-05T19:37:10.077Z,50.58
2019-05-05T19:39:35.960Z,50.60
2019-05-05T19:42:01.862Z,50.32
2019-05-05T19:44:28.007Z,50.13
2019-05-05T19:46:55.753Z,50.30
2019-05-05T19:49:21.627Z,50.63
2019-05-05T19:51:48.121Z,50.81
2019-05-05T19:54:14.459Z,50.86
2019-05-05T19:56:40.559Z,51.00
2019-05-05T19:59:06.576Z,50.72
2019-05-05T20:01:37.082Z,50.91
2019-05-05T20:04:00.423Z,50.81
2019-05-05T20:06:26.414Z,50.76
2019-05-05T20:08:53.663Z,51.04
2019-05-05T20:11:19.754Z,51.78
2019-05-05T20:13:45.646Z,51.30
2019-05-05T20:16:22.152Z,51.75
2019-05-05T20:18:50.170Z,51.75
2019-05-05T20:21:15.898Z,51.34
2019-05-05T20:23:43.642Z,51.25
2019-05-05T20:26:09.696Z,51.05
2019-05-05T20:28:35.694Z,51.72
2019-05-05T20:31:03.454Z,51.64
2019-05-05T20:33:31.227Z,51.71
2019-05-05T20:36:16.705Z,51.67
2019-05-05T20:38:44.767Z,51.73
2019-05-05T20:41:14.190Z,51.66
2019-05-05T20:43:40.400Z,51.61
2019-05-05T20:46:06.540Z,51.66
2019-05-05T20:48:34.099Z,51.66
2019-05-05T20:51:00.076Z,51.58
2019-05-05T20:53:26.113Z,51.51
2019-05-05T20:55:54.295Z,51.30
2019-05-05T20:58:19.793Z,51.30
2019-05-05T21:00:45.928Z,51.46
2019-05-05T21:03:14.046Z,51.12
2019-05-05T21:05:39.777Z,51.24
2019-05-05T21:08:05.879Z,51.42
2019-05-05T21:10:31.823Z,51.18
2019-05-05T21:12:57.717Z,51.23
2019-05-05T21:15:24.662Z,51.23
2019-05-05T21:17:53.947Z,51.34
2019-05-05T21:20:19.687Z,51.15
2019-05-05T21:22:47.959Z,51.20
2019-05-05T21:25:30.720Z,51.39
2019-05-05T21:27:56.780Z,51.41
2019-05-05T21:30:23.819Z,51.48
2019-05-05T21:32:49.845Z,51.42
2019-05-05T21:35:15.781Z,51.44
2019-05-05T21:37:41.662Z,51.36
2019-05-05T21:40:07.645Z,51.56
2019-05-05T21:42:34.969Z,51.69
2019-05-05T21:45:01.051Z,51.82
2019-05-05T21:47:26.922Z,52.12
2019-05-05T21:49:54.232Z,52.22
2019-05-05T21:52:25.115Z,51.88
2019-05-05T21:54:55.743Z,51.72
2019-05-05T21:57:40.141Z,51.75
2019-05-05T22:00:07.029Z,51.81
2019-05-05T22:02:34.507Z,51.83
2019-05-05T22:05:00.597Z,52.30
2019-05-05T22:07:26.816Z,51.97
2019-05-05T22:09:54.457Z,52.05
2019-05-05T22:12:20.425Z,51.72
2019-05-05T22:14:46.368Z,51.71
2019-05-05T22:17:14.500Z,52.48
2019-05-05T22:19:42.028Z,52.09
2019-05-05T22:22:10.051Z,51.88
2019-05-05T22:24:36.544Z,51.67
2019-05-05T22:27:04.552Z,51.91
2019-05-05T22:29:30.199Z,51.84
2019-05-05T22:31:56.176Z,52.49
2019-05-05T22:34:23.924Z,52.32
2019-05-05T22:36:49.967Z,53.53
2019-05-05T22:39:17.120Z,53.14
2019-05-05T22:41:44.527Z,53.51
2019-05-05T22:44:10.636Z,52.92
2019-05-05T22:46:36.723Z,52.99
2019-05-05T22:49:03.908Z,52.80
2019-05-05T22:51:29.972Z,53.08
2019-05-05T22:53:55.959Z,53.46
2019-05-05T22:56:24.012Z,54.19
2019-05-05T22:58:49.708Z,55.49
2019-05-05T23:01:15.691Z,54.17
2019-05-05T23:04:00.138Z,53.83
2019-05-05T23:06:33.545Z,53.83
2019-05-05T23:08:59.743Z,54.94
2019-05-05T23:11:25.910Z,54.66
2019-05-05T23:13:53.800Z,54.38
2019-05-05T23:16:27.632Z,54.83
2019-05-05T23:18:54.673Z,55.36
2019-05-05T23:21:24.715Z,54.83
2019-05-05T23:23:56.048Z,54.64
2019-05-05T23:26:31.029Z,54.50
2019-05-05T23:28:57.174Z,54.97
2019-05-05T23:31:24.127Z,54.73
2019-05-05T23:33:50.194Z,54.91
2019-05-05T23:36:16.197Z,55.00
2019-05-05T23:38:42.198Z,54.56
2019-05-05T23:41:08.157Z,54.65
2019-05-05T23:43:34.564Z,55.30
2019-05-05T23:46:00.609Z,54.49
2019-05-05T23:48:27.096Z,54.47
2019-05-05T23:50:54.172Z,54.62
2019-05-05T23:53:20.258Z,54.60
2019-05-05T23:55:46.233Z,54.55
2019-05-05T23:58:14.274Z,54.45
